createdAt,value
2018-04-08T00:00:31.132Z,11.69
2018-04-08T00:01:31.121Z,11.79
2018-04-08T00:02:31.117Z,11.85
2018-04-08T00:03:31.110Z,11.72
2018-04-08T00:04:31.099Z,11.82
2018-04-08T00:05:31.082Z,11.72
2018-04-08T00:06:31.080Z,11.87
2018-04-08T00:07:31.065Z,11.81
2018-04-08T00:08:31.059Z,11.64
2018-04-08T00:09:31.046Z,11.66
2018-04-08T00:10:31.041Z,11.72
2018-04-08T00:11:31.025Z,11.69
2018-04-08T00:12:31.015Z,11.66
2018-04-08T00:13:31.007Z,11.62
2018-04-08T00:14:31.000Z,11.62
2018-04-08T00:15:30.986Z,11.60
2018-04-08T00:16:30.975Z,11.64
2018-04-08T00:17:30.965Z,11.59
2018-04-08T00:18:30.957Z,11.60
2018-04-08T00:19:30.952Z,11.62
2018-04-08T00:20:30.936Z,11.49
2018-04-08T00:21:30.935Z,11.56
2018-04-08T00:22:30.918Z,11.49
2018-04-08T00:23:30.905Z,11.36
2018-04-08T00:24:30.903Z,11.31
2018-04-08T00:25:30.891Z,11.38
2018-04-08T00:26:30.879Z,11.28
2018-04-08T00:27:30.870Z,11.33
2018-04-08T00:28:30.857Z,11.30
2018-04-08T00:29:30.856Z,11.30
2018-04-08T00:30:30.842Z,11.24
2018-04-08T00:31:30.833Z,11.35
2018-04-08T00:32:30.816Z,11.26
2018-04-08T00:33:30.811Z,11.28
2018-04-08T00:34:30.797Z,11.26
2018-04-08T00:35:30.788Z,11.13
2018-04-08T00:36:30.780Z,11.21
2018-04-08T00:37:30.769Z,11.16
2018-04-08T00:38:30.765Z,11.23
2018-04-08T00:39:30.757Z,11.21
2018-04-08T00:40:30.742Z,11.19
2018-04-08T00:41:30.733Z,11.12
2018-04-08T00:42:30.718Z,11.06
2018-04-08T00:43:30.715Z,11.01
2018-04-08T00:44:30.697Z,11.11
2018-04-08T00:45:30.691Z,11.12
2018-04-08T00:46:30.678Z,11.11
2018-04-08T00:47:30.668Z,11.09
2018-04-08T00:48:30.660Z,11.09
2018-04-08T00:49:30.647Z,11.11
2018-04-08T00:50:30.642Z,11.05
2018-04-08T00:51:30.629Z,11.08
2018-04-08T00:52:30.622Z,11.12
2018-04-08T00:53:30.604Z,11.05
2018-04-08T00:54:30.607Z,11.05
2018-04-08T00:55:30.591Z,11.01
2018-04-08T00:56:30.579Z,11.05
2018-04-08T00:57:30.567Z,10.94
2018-04-08T00:58:30.555Z,11.02
2018-04-08T00:59:30.544Z,10.95
2018-04-08T01:00:30.532Z,10.91
2018-04-08T01:01:30.527Z,10.84
2018-04-08T01:02:30.514Z,10.91
2018-04-08T01:03:30.503Z,10.91
2018-04-08T01:04:30.490Z,10.90
2018-04-08T01:05:30.482Z,10.88
2018-04-08T01:06:30.476Z,10.84
2018-04-08T01:07:30.461Z,10.76
2018-04-08T01:08:30.458Z,10.70
2018-04-08T01:09:30.453Z,10.76
2018-04-08T01:10:30.429Z,10.69
2018-04-08T01:11:30.425Z,10.70
2018-04-08T01:12:30.414Z,10.62
2018-04-08T01:13:30.397Z,10.70
2018-04-08T01:14:30.390Z,10.66
2018-04-08T01:15:30.384Z,10.73
2018-04-08T01:16:30.367Z,10.63
2018-04-08T01:17:30.358Z,10.65
2018-04-08T01:18:30.346Z,10.55
2018-04-08T01:19:30.343Z,10.55
2018-04-08T01:20:30.326Z,10.57
2018-04-08T01:21:30.317Z,10.55
2018-04-08T01:22:30.313Z,10.51
2018-04-08T01:23:30.294Z,10.58
2018-04-08T01:24:30.284Z,10.46
2018-04-08T01:25:30.279Z,10.55
2018-04-08T01:26:30.261Z,10.47
2018-04-08T01:27:30.252Z,10.36
2018-04-08T01:28:30.245Z,10.43
2018-04-08T01:29:30.236Z,10.36
2018-04-08T01:30:30.225Z,10.39
2018-04-08T01:31:30.214Z,10.39
2018-04-08T01:32:30.200Z,10.42
2018-04-08T01:33:30.192Z,10.36
2018-04-08T01:34:30.176Z,10.38
2018-04-08T01:35:30.167Z,10.38
2018-04-08T01:36:30.157Z,10.42
2018-04-08T01:37:30.153Z,10.47
2018-04-08T01:38:30.135Z,10.39
2018-04-08T01:39:30.124Z,10.44
2018-04-08T01:40:30.363Z,10.43
2018-04-08T01:41:30.103Z,10.39
2018-04-08T01:42:30.091Z,10.42
2018-04-08T01:43:30.083Z,10.39
2018-04-08T01:44:30.077Z,10.39
2018-04-08T01:45:30.066Z,10.43
2018-04-08T01:46:30.308Z,10.34
2018-04-08T01:47:30.041Z,10.38
2018-04-08T01:48:30.032Z,10.39
2018-04-08T01:49:30.021Z,10.55
2018-04-08T01:50:30.006Z,10.54
2018-04-08T01:51:29.997Z,10.39
2018-04-08T01:52:29.994Z,10.57
2018-04-08T01:53:29.972Z,10.42
2018-04-08T01:54:29.964Z,10.57
2018-04-08T01:55:29.952Z,10.49
2018-04-08T01:56:29.941Z,10.43
2018-04-08T01:57:29.936Z,10.36
2018-04-08T01:58:29.925Z,10.38
2018-04-08T01:59:29.915Z,10.36
2018-04-08T02:00:29.900Z,10.32
2018-04-08T02:01:29.893Z,10.32
2018-04-08T02:02:29.878Z,10.31
2018-04-08T02:03:29.865Z,10.17
2018-04-08T02:04:29.859Z,10.13
2018-04-08T02:05:29.843Z,10.22
2018-04-08T02:06:29.831Z,10.13
2018-04-08T02:07:29.820Z,10.18
2018-04-08T02:08:29.809Z,10.04
2018-04-08T02:09:29.804Z,10.14
2018-04-08T02:10:29.790Z,10.09
2018-04-08T02:11:29.777Z,10.14
2018-04-08T02:12:29.765Z,10.09
2018-04-08T02:13:29.755Z,10.04
2018-04-08T02:14:29.743Z,10.04
2018-04-08T02:15:29.735Z,9.99
2018-04-08T02:16:29.730Z,10.04
2018-04-08T02:17:29.712Z,9.92
2018-04-08T02:18:29.708Z,9.93
2018-04-08T02:19:29.755Z,9.95
2018-04-08T02:20:29.679Z,9.88
2018-04-08T02:21:29.666Z,9.93
2018-04-08T02:22:29.655Z,9.88
2018-04-08T02:23:29.644Z,9.93
2018-04-08T02:24:29.635Z,9.89
2018-04-08T02:25:29.623Z,9.98
2018-04-08T02:26:29.618Z,9.91
2018-04-08T02:27:29.600Z,9.95
2018-04-08T02:28:29.596Z,9.88
2018-04-08T02:29:29.578Z,9.89
2018-04-08T02:30:29.567Z,9.86
2018-04-08T02:31:29.563Z,9.93
2018-04-08T02:32:29.545Z,9.95
2018-04-08T02:33:29.532Z,9.96
2018-04-08T02:34:29.522Z,9.92
2018-04-08T02:35:29.519Z,9.96
2018-04-08T02:36:29.554Z,9.92
2018-04-08T02:37:29.489Z,9.92
2018-04-08T02:38:29.480Z,9.80
2018-04-08T02:39:29.470Z,9.80
2018-04-08T02:40:29.456Z,9.78
2018-04-08T02:41:29.443Z,9.81
2018-04-08T02:42:29.434Z,9.74
2018-04-08T02:43:29.424Z,9.83
2018-04-08T02:44:29.415Z,9.73
2018-04-08T02:45:29.399Z,9.80
2018-04-08T02:46:29.397Z,9.80
2018-04-08T02:47:29.383Z,9.80
2018-04-08T02:48:29.372Z,9.65
2018-04-08T02:49:29.354Z,9.67
2018-04-08T02:50:29.345Z,9.83
2018-04-08T02:51:29.340Z,9.75
2018-04-08T02:52:29.329Z,9.77
2018-04-08T02:53:29.310Z,9.74
2018-04-08T02:54:29.300Z,9.73
2018-04-08T02:55:29.291Z,9.70
2018-04-08T02:56:29.276Z,9.71
2018-04-08T02:57:29.265Z,9.68
2018-04-08T02:58:29.254Z,9.70
2018-04-08T02:59:29.243Z,9.63
2018-04-08T03:00:29.236Z,9.65
2018-04-08T03:01:29.219Z,9.65
2018-04-08T03:02:29.208Z,9.60
2018-04-08T03:03:29.201Z,9.67
2018-04-08T03:04:29.189Z,9.60
2018-04-08T03:05:29.179Z,9.70
2018-04-08T03:06:29.167Z,9.73
2018-04-08T03:07:29.159Z,9.74
2018-04-08T03:08:29.141Z,9.71
2018-04-08T03:09:29.135Z,9.63
2018-04-08T03:10:29.118Z,9.70
2018-04-08T03:11:29.113Z,9.63
2018-04-08T03:12:29.094Z,9.68
2018-04-08T03:13:29.083Z,9.67
2018-04-08T03:14:29.072Z,9.56
2018-04-08T03:15:29.064Z,9.67
2018-04-08T03:16:29.054Z,9.60
2018-04-08T03:17:29.039Z,9.63
2018-04-08T03:18:29.034Z,9.68
2018-04-08T03:19:29.014Z,9.68
2018-04-08T03:20:29.001Z,9.73
2018-04-08T03:21:28.993Z,9.62
2018-04-08T03:22:28.980Z,9.70
2018-04-08T03:23:28.975Z,9.56
2018-04-08T03:24:28.962Z,9.60
2018-04-08T03:25:28.954Z,9.58
2018-04-08T03:26:28.940Z,9.56
2018-04-08T03:27:28.924Z,9.55
2018-04-08T03:28:28.917Z,9.59
2018-04-08T03:29:28.899Z,9.59
2018-04-08T03:30:28.889Z,9.67
2018-04-08T03:31:28.886Z,9.60
2018-04-08T03:32:28.892Z,9.68
2018-04-08T03:33:28.855Z,9.71
2018-04-08T03:34:28.843Z,9.73
2018-04-08T03:35:28.829Z,9.73
2018-04-08T03:36:28.818Z,9.63
2018-04-08T03:37:28.812Z,9.65
2018-04-08T03:38:28.795Z,9.58
2018-04-08T03:39:28.785Z,9.56
2018-04-08T03:40:28.779Z,9.58
2018-04-08T03:41:28.760Z,9.44
2018-04-08T03:42:28.748Z,9.50
2018-04-08T03:43:28.736Z,9.40
2018-04-08T03:44:28.726Z,9.40
2018-04-08T03:45:28.721Z,9.42
2018-04-08T03:46:28.710Z,9.37
2018-04-08T03:47:28.692Z,9.40
2018-04-08T03:48:28.683Z,9.45
2018-04-08T03:49:28.674Z,9.52
2018-04-08T03:50:28.661Z,9.52
2018-04-08T03:51:28.648Z,9.50
2018-04-08T03:52:28.638Z,9.45
2018-04-08T03:53:28.624Z,9.37
2018-04-08T03:54:28.623Z,9.40
2018-04-08T03:55:28.602Z,9.32
2018-04-08T03:56:28.593Z,9.34
2018-04-08T03:57:28.573Z,9.31
2018-04-08T03:58:28.571Z,9.24
2018-04-08T03:59:28.557Z,9.38
2018-04-08T04:00:28.541Z,9.44
2018-04-08T04:01:28.529Z,9.30
2018-04-08T04:02:28.525Z,9.30
2018-04-08T04:03:28.511Z,9.27
2018-04-08T04:04:28.492Z,9.35
2018-04-08T04:05:28.483Z,9.35
2018-04-08T04:06:28.468Z,9.40
2018-04-08T04:07:28.457Z,9.31
2018-04-08T04:08:28.452Z,9.26
2018-04-08T04:09:28.439Z,9.27
2018-04-08T04:10:28.423Z,9.23
2018-04-08T04:11:28.412Z,9.23
2018-04-08T04:12:28.403Z,9.24
2018-04-08T04:13:28.386Z,9.24
2018-04-08T04:14:28.382Z,9.19
2018-04-08T04:15:28.370Z,9.19
2018-04-08T04:16:28.350Z,9.17
2018-04-08T04:17:28.342Z,9.20
2018-04-08T04:18:28.328Z,9.16
2018-04-08T04:19:28.325Z,9.17
2018-04-08T04:20:28.311Z,9.08
2018-04-08T04:21:28.293Z,9.08
2018-04-08T04:22:28.283Z,9.06
2018-04-08T04:23:28.269Z,9.00
2018-04-08T04:24:28.258Z,9.03
2018-04-08T04:25:28.246Z,9.01
2018-04-08T04:26:28.234Z,9.01
2018-04-08T04:27:28.222Z,9.01
2018-04-08T04:28:28.211Z,9.00
2018-04-08T04:29:28.199Z,8.97
2018-04-08T04:30:28.194Z,9.00
2018-04-08T04:31:28.180Z,8.98
2018-04-08T04:32:28.169Z,9.10
2018-04-08T04:33:28.154Z,9.08
2018-04-08T04:34:28.142Z,9.10
2018-04-08T04:35:28.128Z,9.19
2018-04-08T04:36:28.115Z,9.10
2018-04-08T04:37:28.106Z,9.08
2018-04-08T04:38:28.100Z,9.16
2018-04-08T04:39:28.086Z,9.08
2018-04-08T04:40:28.074Z,9.15
2018-04-08T04:41:28.056Z,9.13
2018-04-08T04:42:28.052Z,9.10
2018-04-08T04:43:28.036Z,9.08
2018-04-08T04:44:28.021Z,9.15
2018-04-08T04:45:28.013Z,9.08
2018-04-08T04:46:27.998Z,9.16
2018-04-08T04:47:27.984Z,8.97
2018-04-08T04:48:27.979Z,9.06
2018-04-08T04:49:27.967Z,9.01
2018-04-08T04:50:27.952Z,8.98
2018-04-08T04:51:27.937Z,8.96
2018-04-08T04:52:27.929Z,8.98
2018-04-08T04:53:27.920Z,8.98
2018-04-08T04:54:27.902Z,8.98
2018-04-08T04:55:27.890Z,9.03
2018-04-08T04:56:27.879Z,8.97
2018-04-08T04:57:27.865Z,8.94
2018-04-08T04:58:27.853Z,9.04
2018-04-08T04:59:27.842Z,9.00
2018-04-08T05:00:27.828Z,9.04
2018-04-08T05:01:27.817Z,9.08
2018-04-08T05:02:27.805Z,9.15
2018-04-08T05:03:27.793Z,9.04
2018-04-08T05:04:27.781Z,9.08
2018-04-08T05:05:27.770Z,9.13
2018-04-08T05:06:27.763Z,9.10
2018-04-08T05:07:27.746Z,9.12
2018-04-08T05:08:27.740Z,9.20
2018-04-08T05:09:27.721Z,9.27
2018-04-08T05:10:27.708Z,9.24
2018-04-08T05:11:27.698Z,9.31
2018-04-08T05:12:27.692Z,9.31
2018-04-08T05:13:27.683Z,9.37
2018-04-08T05:14:27.664Z,9.40
2018-04-08T05:15:27.656Z,9.35
2018-04-08T05:16:27.645Z,9.35
2018-04-08T05:17:27.635Z,9.41
2018-04-08T05:18:27.616Z,9.30
2018-04-08T05:19:27.609Z,9.38
2018-04-08T05:20:27.591Z,9.41
2018-04-08T05:21:27.577Z,9.40
2018-04-08T05:22:27.569Z,9.41
2018-04-08T05:23:27.562Z,9.44
2018-04-08T05:24:27.547Z,9.42
2018-04-08T05:25:27.537Z,9.48
2018-04-08T05:26:27.523Z,9.49
2018-04-08T05:27:27.510Z,9.48
2018-04-08T05:28:27.496Z,9.48
2018-04-08T05:29:27.484Z,9.60
2018-04-08T05:30:27.475Z,9.55
2018-04-08T05:31:27.463Z,9.70
2018-04-08T05:32:27.454Z,9.74
2018-04-08T05:33:27.438Z,9.70
2018-04-08T05:34:27.427Z,9.70
2018-04-08T05:35:27.421Z,9.65
2018-04-08T05:36:27.408Z,9.81
2018-04-08T05:37:27.398Z,9.77
2018-04-08T05:38:27.380Z,9.81
2018-04-08T05:39:27.369Z,9.91
2018-04-08T05:40:27.357Z,9.95
2018-04-08T05:41:27.346Z,9.98
2018-04-08T05:42:27.334Z,10.04
2018-04-08T05:43:27.323Z,10.13
2018-04-08T05:44:27.323Z,10.16
2018-04-08T05:45:27.311Z,10.16
2018-04-08T05:46:27.292Z,10.31
2018-04-08T05:47:27.278Z,10.29
2018-04-08T05:48:27.266Z,10.32
2018-04-08T05:49:27.262Z,10.39
2018-04-08T05:50:27.247Z,10.42
2018-04-08T05:51:27.239Z,10.51
2018-04-08T05:52:27.221Z,10.54
2018-04-08T05:53:27.217Z,10.51
2018-04-08T05:54:27.202Z,10.57
2018-04-08T05:55:27.189Z,10.66
2018-04-08T05:56:27.177Z,10.84
2018-04-08T05:57:27.166Z,10.91
2018-04-08T05:58:27.163Z,10.94
2018-04-08T05:59:27.147Z,11.02
2018-04-08T06:00:27.134Z,11.06
2018-04-08T06:01:27.131Z,11.06
2018-04-08T06:02:27.116Z,11.17
2018-04-08T06:03:27.102Z,11.24
2018-04-08T06:04:27.090Z,11.19
2018-04-08T06:05:27.082Z,11.24
2018-04-08T06:06:27.071Z,11.27
2018-04-08T06:07:27.061Z,11.31
2018-04-08T06:08:27.052Z,11.36
2018-04-08T06:09:27.040Z,11.36
2018-04-08T06:10:27.034Z,11.46
2018-04-08T06:11:27.020Z,11.48
2018-04-08T06:12:27.009Z,11.54
2018-04-08T06:13:27.004Z,11.64
2018-04-08T06:14:26.997Z,11.60
2018-04-08T06:15:26.982Z,11.63
2018-04-08T06:16:26.969Z,11.81
2018-04-08T06:17:26.956Z,11.81
2018-04-08T06:18:26.947Z,11.77
2018-04-08T06:19:26.936Z,11.88
2018-04-08T06:20:26.926Z,11.90
2018-04-08T06:21:26.915Z,11.94
2018-04-08T06:22:26.907Z,11.98
2018-04-08T06:23:26.897Z,12.07
2018-04-08T06:24:26.887Z,12.15
2018-04-08T06:25:26.881Z,12.29
2018-04-08T06:26:26.867Z,12.23
2018-04-08T06:27:26.858Z,12.38
2018-04-08T06:28:26.847Z,12.38
2018-04-08T06:29:26.843Z,12.38
2018-04-08T06:30:26.827Z,12.52
2018-04-08T06:31:26.829Z,12.52
2018-04-08T06:32:26.808Z,12.54
2018-04-08T06:33:26.798Z,12.55
2018-04-08T06:34:26.801Z,12.52
2018-04-08T06:35:26.788Z,12.55
2018-04-08T06:36:26.775Z,12.56
2018-04-08T06:37:26.760Z,12.62
2018-04-08T06:38:26.751Z,12.66
2018-04-08T06:39:26.742Z,12.61
2018-04-08T06:40:26.733Z,12.77
2018-04-08T06:41:26.775Z,12.88
2018-04-08T06:42:26.712Z,12.85
2018-04-08T06:43:26.727Z,12.91
2018-04-08T06:44:26.695Z,12.91
2018-04-08T06:45:26.686Z,12.98
2018-04-08T06:46:26.690Z,13.09
2018-04-08T06:47:26.670Z,13.24
2018-04-08T06:48:26.661Z,13.29
2018-04-08T06:49:26.686Z,13.28
2018-04-08T06:50:26.652Z,13.39
2018-04-08T06:51:26.644Z,13.39
2018-04-08T06:52:26.691Z,13.62
2018-04-08T06:53:26.620Z,13.69
2018-04-08T06:54:26.622Z,13.68
2018-04-08T06:55:26.597Z,13.68
2018-04-08T06:56:26.587Z,13.69
2018-04-08T06:57:26.584Z,13.63
2018-04-08T06:58:26.587Z,13.73
2018-04-08T06:59:26.571Z,13.75
2018-04-08T07:00:26.554Z,13.86
2018-04-08T07:01:26.550Z,13.96
2018-04-08T07:02:26.537Z,13.99
2018-04-08T07:03:26.529Z,14.05
2018-04-08T07:04:26.530Z,14.16
2018-04-08T07:05:26.511Z,14.27
2018-04-08T07:06:26.505Z,14.19
2018-04-08T07:07:26.501Z,14.17
2018-04-08T07:08:26.484Z,14.27
2018-04-08T07:09:26.479Z,14.39
2018-04-08T07:10:26.471Z,14.45
2018-04-08T07:11:26.466Z,14.54
2018-04-08T07:12:26.451Z,14.56
2018-04-08T07:13:26.448Z,14.56
2018-04-08T07:14:26.435Z,14.59
2018-04-08T07:15:26.431Z,14.64
2018-04-08T07:16:26.422Z,14.57
2018-04-08T07:17:26.412Z,14.54
2018-04-08T07:18:26.478Z,14.60
2018-04-08T07:19:26.396Z,14.57
2018-04-08T07:20:26.389Z,14.69
2018-04-08T07:21:26.386Z,14.64
2018-04-08T07:22:26.376Z,14.74
2018-04-08T07:23:26.372Z,14.79
2018-04-08T07:24:26.356Z,14.83
2018-04-08T07:25:26.348Z,14.75
2018-04-08T07:26:26.344Z,14.91
2018-04-08T07:27:26.336Z,14.95
2018-04-08T07:28:26.326Z,14.91
2018-04-08T07:29:26.320Z,15.03
2018-04-08T07:30:26.311Z,15.00
2018-04-08T07:31:26.304Z,15.03
2018-04-08T07:32:26.297Z,15.11
2018-04-08T07:33:26.288Z,15.12
2018-04-08T07:34:26.281Z,15.15
2018-04-08T07:35:26.274Z,15.27
2018-04-08T07:36:26.266Z,15.33
2018-04-08T07:37:26.258Z,15.38
2018-04-08T07:38:26.251Z,15.34
2018-04-08T07:39:26.247Z,15.34
2018-04-08T07:40:26.237Z,15.49
2018-04-08T07:41:26.242Z,15.48
2018-04-08T07:42:26.234Z,15.59
2018-04-08T07:43:26.216Z,15.52
2018-04-08T07:44:26.209Z,15.60
2018-04-08T07:45:26.206Z,15.68
2018-04-08T07:46:26.194Z,15.70
2018-04-08T07:47:26.192Z,15.71
2018-04-08T07:48:26.185Z,15.85
2018-04-08T07:49:26.172Z,15.95
2018-04-08T07:50:26.171Z,16.01
2018-04-08T07:51:26.164Z,16.10
2018-04-08T07:52:26.168Z,16.10
2018-04-08T07:53:26.149Z,16.14
2018-04-08T07:54:26.140Z,16.08
2018-04-08T07:55:26.133Z,16.16
2018-04-08T07:56:26.124Z,16.16
2018-04-08T07:57:26.119Z,16.16
2018-04-08T07:58:26.111Z,16.23
2018-04-08T07:59:26.109Z,16.30
2018-04-08T08:00:26.098Z,16.34
2018-04-08T08:01:26.096Z,16.37
2018-04-08T08:02:26.084Z,16.44
2018-04-08T08:03:26.079Z,16.41
2018-04-08T08:04:26.070Z,16.45
2018-04-08T08:05:26.119Z,16.51
2018-04-08T08:06:26.063Z,16.57
2018-04-08T08:07:26.053Z,16.77
2018-04-08T08:08:26.047Z,16.77
2018-04-08T08:09:26.039Z,16.73
2018-04-08T08:10:26.032Z,16.85
2018-04-08T08:11:26.035Z,16.92
2018-04-08T08:12:26.021Z,17.07
2018-04-08T08:13:26.014Z,17.06
2018-04-08T08:14:26.009Z,17.28
2018-04-08T08:15:26.002Z,17.38
2018-04-08T08:16:26.001Z,17.36
2018-04-08T08:17:25.990Z,17.32
2018-04-08T08:18:25.985Z,17.46
2018-04-08T08:19:25.979Z,17.53
2018-04-08T08:20:25.979Z,17.68
2018-04-08T08:21:25.965Z,17.80
2018-04-08T08:22:25.960Z,17.83
2018-04-08T08:23:25.960Z,17.87
2018-04-08T08:24:25.950Z,17.98
2018-04-08T08:25:25.945Z,18.04
2018-04-08T08:26:25.935Z,18.13
2018-04-08T08:27:25.930Z,18.25
2018-04-08T08:28:25.922Z,18.21
2018-04-08T08:29:25.922Z,18.31
2018-04-08T08:30:25.911Z,18.39
2018-04-08T08:31:25.906Z,18.38
2018-04-08T08:32:25.898Z,18.51
2018-04-08T08:33:25.894Z,18.50
2018-04-08T08:34:25.889Z,18.60
2018-04-08T08:35:25.889Z,18.62
2018-04-08T08:36:25.875Z,18.69
2018-04-08T08:37:25.869Z,18.72
2018-04-08T08:38:25.873Z,18.76
2018-04-08T08:39:25.857Z,18.74
2018-04-08T08:40:25.851Z,18.79
2018-04-08T08:41:25.847Z,18.71
2018-04-08T08:42:25.843Z,18.74
2018-04-08T08:43:25.842Z,18.78
2018-04-08T08:44:25.828Z,18.90
2018-04-08T08:45:25.824Z,19.01
2018-04-08T08:46:25.820Z,19.05
2018-04-08T08:47:25.815Z,19.10
2018-04-08T08:48:25.808Z,19.09
2018-04-08T08:49:25.803Z,19.24
2018-04-08T08:50:25.798Z,19.31
2018-04-08T08:51:25.800Z,19.30
2018-04-08T08:52:25.789Z,19.39
2018-04-08T08:53:25.782Z,19.53
2018-04-08T08:54:25.775Z,19.42
2018-04-08T08:55:25.776Z,19.53
2018-04-08T08:56:25.771Z,19.53
2018-04-08T08:57:25.759Z,19.52
2018-04-08T08:58:25.774Z,19.65
2018-04-08T08:59:25.750Z,19.71
2018-04-08T09:00:25.772Z,19.78
2018-04-08T09:01:25.738Z,19.61
2018-04-08T09:02:25.739Z,19.67
2018-04-08T09:03:25.753Z,19.76
2018-04-08T09:04:25.729Z,19.85
2018-04-08T09:05:25.718Z,19.87
2018-04-08T09:06:25.721Z,19.89
2018-04-08T09:07:25.707Z,19.90
2018-04-08T09:08:25.703Z,20.01
2018-04-08T09:09:25.719Z,20.07
2018-04-08T09:10:25.693Z,20.08
2018-04-08T09:11:25.688Z,19.94
2018-04-08T09:12:25.689Z,19.87
2018-04-08T09:13:25.681Z,19.92
2018-04-08T09:14:25.679Z,20.01
2018-04-08T09:15:25.669Z,20.05
2018-04-08T09:16:25.665Z,19.98
2018-04-08T09:17:25.688Z,20.04
2018-04-08T09:18:25.655Z,20.12
2018-04-08T09:19:25.676Z,20.16
2018-04-08T09:20:25.643Z,20.10
2018-04-08T09:21:25.641Z,20.08
2018-04-08T09:22:25.639Z,20.10
2018-04-08T09:23:25.629Z,20.10
2018-04-08T09:24:25.625Z,20.10
2018-04-08T09:25:25.619Z,20.12
2018-04-08T09:26:25.614Z,20.37
2018-04-08T09:27:25.613Z,20.37
2018-04-08T09:28:25.608Z,20.48
2018-04-08T09:29:25.635Z,20.44
2018-04-08T09:30:25.595Z,20.66
2018-04-08T09:33:33.118Z,20.64
2018-04-08T09:34:33.050Z,20.50
2018-04-08T09:35:33.041Z,20.44
2018-04-08T09:36:33.047Z,20.38
2018-04-08T09:37:33.040Z,20.35
2018-04-08T09:38:33.032Z,20.51
2018-04-08T09:39:33.039Z,20.66
2018-04-08T09:40:33.026Z,20.61
2018-04-08T09:41:33.024Z,20.72
2018-04-08T09:42:33.018Z,20.75
2018-04-08T09:43:33.018Z,20.88
2018-04-08T09:44:33.014Z,20.91
2018-04-08T09:45:33.013Z,21.00
2018-04-08T09:46:33.009Z,21.03
2018-04-08T09:47:33.005Z,21.00
2018-04-08T09:48:33.003Z,21.03
2018-04-08T09:49:33.003Z,21.03
2018-04-08T09:50:33.000Z,20.97
2018-04-08T09:51:33.003Z,20.94
2018-04-08T09:52:32.994Z,21.12
2018-04-08T09:53:32.993Z,21.21
2018-04-08T09:54:32.989Z,21.26
2018-04-08T09:55:32.988Z,21.40
2018-04-08T09:56:32.988Z,21.37
2018-04-08T09:57:32.992Z,21.51
2018-04-08T09:58:32.983Z,21.55
2018-04-08T09:59:32.982Z,21.48
2018-04-08T10:00:32.980Z,21.55
2018-04-08T10:01:32.978Z,21.64
2018-04-08T10:02:32.974Z,21.51
2018-04-08T10:03:32.981Z,21.46
2018-04-08T10:04:32.980Z,21.43
2018-04-08T10:05:33.051Z,21.30
2018-04-08T10:06:32.973Z,21.33
2018-04-08T10:07:32.968Z,21.40
2018-04-08T10:08:32.973Z,21.49
2018-04-08T10:09:32.965Z,21.61
2018-04-08T10:10:32.964Z,21.77
2018-04-08T10:11:32.968Z,21.81
2018-04-08T10:12:32.964Z,21.83
2018-04-08T10:13:32.965Z,21.74
2018-04-08T10:14:32.960Z,21.96
2018-04-08T10:15:32.955Z,21.86
2018-04-08T10:16:32.957Z,21.99
2018-04-08T10:17:32.994Z,21.90
2018-04-08T10:18:32.953Z,21.98
2018-04-08T10:19:32.955Z,22.09
2018-04-08T10:20:32.956Z,22.08
2018-04-08T10:21:32.950Z,22.05
2018-04-08T10:22:32.948Z,22.04
2018-04-08T10:23:32.947Z,22.05
2018-04-08T10:24:32.955Z,22.17
2018-04-08T10:25:32.950Z,22.20
2018-04-08T10:26:32.942Z,22.30
2018-04-08T10:27:32.941Z,22.33
2018-04-08T10:28:32.948Z,22.42
2018-04-08T10:29:32.948Z,22.48
2018-04-08T10:30:32.947Z,22.61
2018-04-08T10:31:32.940Z,22.64
2018-04-08T10:32:32.947Z,22.59
2018-04-08T10:33:32.938Z,22.63
2018-04-08T10:34:32.937Z,22.66
2018-04-08T10:35:32.945Z,22.67
2018-04-08T17:59:38.042Z,20.91
2018-04-08T18:00:37.969Z,20.90
2018-04-08T18:01:37.971Z,20.88
2018-04-08T18:02:37.966Z,20.75
2018-04-08T18:03:37.958Z,20.76
2018-04-08T18:04:37.962Z,20.61
2018-04-08T18:05:37.983Z,20.64
2018-04-08T18:06:37.950Z,20.48
2018-04-08T18:07:37.951Z,20.46
2018-04-08T18:08:37.943Z,20.42
2018-04-08T18:09:37.941Z,20.38
2018-04-08T18:10:37.934Z,20.30
2018-04-08T18:11:37.931Z,20.30
2018-04-08T18:12:37.961Z,20.19
2018-04-08T18:13:37.926Z,20.16
2018-04-08T18:14:37.920Z,20.12
2018-04-08T18:15:37.927Z,20.05
2018-04-08T18:16:37.916Z,20.04
2018-04-08T18:17:37.919Z,19.89
2018-04-08T18:18:37.913Z,19.98
2018-04-08T18:19:37.910Z,19.87
2018-04-08T18:20:37.908Z,19.87
2018-04-08T18:21:37.902Z,19.90
2018-04-08T18:22:37.904Z,19.83
2018-04-08T18:23:37.907Z,19.86
2018-04-08T18:24:37.895Z,19.80
2018-04-08T18:25:37.892Z,19.72
2018-04-08T18:26:37.899Z,19.72
2018-04-08T18:27:37.888Z,19.67
2018-04-08T18:28:37.888Z,19.65
2018-04-08T18:29:37.891Z,19.65
2018-04-08T18:30:37.887Z,19.60
2018-04-08T18:31:37.879Z,19.58
2018-04-08T18:32:37.884Z,19.52
2018-04-08T18:33:37.876Z,19.50
2018-04-08T18:34:37.877Z,19.50
2018-04-08T18:35:37.868Z,19.45
2018-04-08T18:36:37.866Z,19.45
2018-04-08T18:37:37.870Z,19.42
2018-04-08T18:38:37.862Z,19.32
2018-04-08T18:39:37.871Z,19.30
2018-04-08T18:40:37.858Z,19.25
2018-04-08T18:41:37.853Z,19.06
2018-04-08T18:42:37.852Z,19.10
2018-04-08T18:43:37.856Z,19.07
2018-04-08T18:44:37.849Z,19.06
2018-04-08T18:45:37.846Z,19.09
2018-04-08T18:46:37.840Z,19.06
2018-04-08T18:47:37.839Z,18.91
2018-04-08T18:48:37.842Z,18.93
2018-04-08T18:49:37.836Z,18.94
2018-04-08T18:50:37.831Z,18.86
2018-04-08T18:51:37.835Z,18.83
2018-04-08T18:52:37.827Z,18.82
2018-04-08T18:53:37.822Z,18.82
2018-04-08T18:54:37.825Z,18.79
2018-04-08T18:55:37.821Z,18.75
2018-04-08T18:56:37.882Z,18.72
2018-04-08T18:57:37.810Z,18.75
2018-04-08T18:58:37.815Z,18.68
2018-04-08T18:59:37.805Z,18.71
2018-04-08T19:00:37.804Z,18.68
2018-04-08T19:01:37.805Z,18.66
2018-04-08T19:02:37.858Z,18.56
2018-04-08T19:03:37.793Z,18.50
2018-04-08T19:04:37.790Z,18.56
2018-04-08T19:05:37.795Z,18.44
2018-04-08T19:06:37.784Z,18.42
2018-04-08T19:07:37.784Z,18.35
2018-04-08T19:08:37.779Z,18.41
2018-04-08T19:09:37.782Z,18.35
2018-04-08T19:10:37.771Z,18.17
2018-04-08T19:11:37.769Z,18.21
2018-04-08T19:12:37.766Z,18.28
2018-04-08T19:13:37.763Z,18.26
2018-04-08T19:14:37.760Z,18.17
2018-04-08T19:15:37.758Z,18.11
2018-04-08T19:16:37.758Z,18.09
2018-04-08T19:17:37.750Z,18.14
2018-04-08T19:18:37.754Z,17.99
2018-04-08T19:19:37.746Z,17.99
2018-04-08T19:20:37.744Z,17.96
2018-04-08T19:21:37.739Z,17.95
2018-04-08T19:22:37.736Z,17.81
2018-04-08T19:23:37.739Z,17.89
2018-04-08T19:24:37.728Z,17.77
2018-04-08T19:25:37.727Z,17.77
2018-04-08T19:26:37.723Z,17.79
2018-04-08T19:27:37.719Z,17.79
2018-04-08T19:28:37.727Z,17.79
2018-04-08T19:29:37.713Z,17.76
2018-04-08T19:30:37.713Z,17.73
2018-04-08T19:31:37.708Z,17.77
2018-04-08T19:32:37.705Z,17.62
2018-04-08T19:33:37.699Z,17.60
2018-04-08T19:34:37.696Z,17.58
2018-04-08T19:35:37.694Z,17.51
2018-04-08T19:36:37.691Z,17.47
2018-04-08T19:37:37.684Z,17.51
2018-04-08T19:38:37.685Z,17.38
2018-04-08T19:39:37.677Z,17.28
2018-04-08T19:40:37.673Z,17.42
2018-04-08T19:41:37.671Z,17.35
2018-04-08T19:42:37.671Z,17.27
2018-04-08T19:43:37.664Z,17.22
2018-04-08T19:44:37.661Z,17.25
2018-04-08T19:45:37.663Z,17.32
2018-04-08T19:46:37.654Z,17.27
2018-04-08T19:47:37.649Z,17.25
2018-04-08T19:48:37.647Z,17.15
2018-04-08T19:49:37.642Z,17.09
2018-04-08T19:50:37.638Z,17.15
2018-04-08T19:51:37.644Z,16.99
2018-04-08T19:52:37.632Z,17.00
2018-04-08T19:53:37.626Z,16.95
2018-04-08T19:54:37.624Z,16.96
2018-04-08T19:55:37.619Z,16.84
2018-04-08T19:56:37.616Z,16.84
2018-04-08T19:57:37.620Z,16.81
2018-04-08T19:58:37.623Z,16.87
2018-04-08T19:59:37.611Z,16.81
2018-04-08T20:00:37.603Z,16.78
2018-04-08T20:01:37.596Z,16.77
2018-04-08T20:02:37.591Z,16.63
2018-04-08T20:03:37.618Z,16.57
2018-04-08T20:04:37.585Z,16.65
2018-04-08T20:05:37.578Z,16.77
2018-04-08T20:06:37.576Z,16.55
2018-04-08T20:07:37.571Z,16.51
2018-04-08T20:08:37.570Z,16.51
2018-04-08T20:09:37.563Z,16.52
2018-04-08T20:10:37.560Z,16.50
2018-04-08T20:11:37.561Z,16.45
2018-04-08T20:12:37.552Z,16.65
2018-04-08T20:13:37.547Z,16.45
2018-04-08T20:14:37.543Z,16.44
2018-04-08T20:15:37.542Z,16.41
2018-04-08T20:16:37.542Z,16.45
2018-04-08T20:17:37.535Z,16.42
2018-04-08T20:18:37.528Z,16.41
2018-04-08T20:19:37.522Z,16.37
2018-04-08T20:20:37.524Z,16.33
2018-04-08T20:21:37.514Z,16.25
2018-04-08T20:22:37.510Z,16.26
2018-04-08T20:23:37.507Z,16.23
2018-04-08T20:24:37.504Z,16.16